createdAt,value
2023-05-01T00:00:53.540Z,4.38
2023-05-01T00:01:55.122Z,3.97
2023-05-01T00:02:56.947Z,3.80
2023-05-01T00:03:58.951Z,4.30
2023-05-01T00:05:01.097Z,3.55
2023-05-01T00:06:05.119Z,4.03
2023-05-01T00:07:06.742Z,4.50
2023-05-01T00:08:08.390Z,4.07
2023-05-01T00:09:10.472Z,4.50
2023-05-01T00:10:12.249Z,4.38
2023-05-01T00:11:13.980Z,3.35
2023-05-01T00:12:15.600Z,4.03
2023-05-01T00:13:21.677Z,3.90
2023-05-01T00:14:23.389Z,4.80
2023-05-01T00:15:25.054Z,4.60
2023-05-01T00:16:26.727Z,4.60
2023-05-01T00:17:28.482Z,4.65
2023-05-01T00:18:30.927Z,5.03
2023-05-01T00:19:32.723Z,4.53
2023-05-01T00:20:34.384Z,4.97
2023-05-01T00:21:36.013Z,4.57
2023-05-01T00:22:37.709Z,4.55
2023-05-01T00:23:39.351Z,4.32
2023-05-01T00:24:40.959Z,4.82
2023-05-01T00:25:42.607Z,5.05
2023-05-01T00:26:45.035Z,5.20
2023-05-01T00:27:46.902Z,4.78
2023-05-01T00:28:48.502Z,4.60
2023-05-01T00:29:50.750Z,4.70
2023-05-01T00:30:52.429Z,4.25
2023-05-01T00:31:55.060Z,4.95
2023-05-01T00:32:56.918Z,5.25
2023-05-01T00:33:58.809Z,5.15
2023-05-01T00:35:00.712Z,5.78
2023-05-01T00:36:02.499Z,5.00
2023-05-01T00:37:04.100Z,4.10
2023-05-01T00:38:05.705Z,4.43
2023-05-01T00:39:07.894Z,5.15
2023-05-01T00:40:09.702Z,4.85
2023-05-01T00:41:11.347Z,4.22
2023-05-01T00:42:13.000Z,4.80
2023-05-01T00:43:14.634Z,4.60
2023-05-01T00:44:16.722Z,4.47
2023-05-01T00:45:18.539Z,4.60
2023-05-01T00:46:20.393Z,5.03
2023-05-01T00:47:22.238Z,4.60
2023-05-01T00:48:24.140Z,5.13
2023-05-01T00:49:26.544Z,4.60
2023-05-01T00:50:28.250Z,5.15
2023-05-01T00:51:31.309Z,4.43
2023-05-01T00:52:33.179Z,4.55
2023-05-01T00:53:34.933Z,4.82
2023-05-01T00:54:37.499Z,5.13
2023-05-01T00:55:42.082Z,5.50
2023-05-01T00:56:43.778Z,4.22
2023-05-01T00:57:46.201Z,5.45
2023-05-01T00:58:53.366Z,4.75
2023-05-01T00:59:55.254Z,4.15
2023-05-01T01:00:57.189Z,4.82
2023-05-01T01:01:58.952Z,5.28
2023-05-01T01:03:00.990Z,4.55
2023-05-01T01:04:02.674Z,4.82
2023-05-01T01:05:05.148Z,4.57
2023-05-01T01:06:15.413Z,5.00
2023-05-01T01:07:41.573Z,4.38
2023-05-01T01:09:08.120Z,4.40
2023-05-01T01:10:20.272Z,4.53
2023-05-01T01:11:38.245Z,4.68
2023-05-01T01:12:53.414Z,3.97
2023-05-01T01:14:10.796Z,4.60
2023-05-01T01:15:22.099Z,4.68
2023-05-01T01:16:32.314Z,4.55
2023-05-01T01:17:50.665Z,4.53
2023-05-01T01:19:07.696Z,4.32
2023-05-01T01:20:37.892Z,4.43
2023-05-01T01:21:43.169Z,3.83
2023-05-01T01:22:50.710Z,3.78
2023-05-01T01:24:12.860Z,4.82
2023-05-01T01:25:20.233Z,4.90
2023-05-01T01:27:06.768Z,4.68
2023-05-01T01:28:34.555Z,4.25
2023-05-01T01:29:59.528Z,3.88
2023-05-01T01:31:22.556Z,3.95
2023-05-01T01:32:43.079Z,4.28
2023-05-01T01:34:14.740Z,4.20
2023-05-01T01:35:23.450Z,4.15
2023-05-01T01:36:42.744Z,4.50
2023-05-01T01:37:52.195Z,3.92
2023-05-01T01:39:14.497Z,4.60
2023-05-01T01:40:27.558Z,3.42
2023-05-01T01:41:34.474Z,4.50
2023-05-01T01:42:47.414Z,3.83
2023-05-01T01:43:57.590Z,4.57
2023-05-01T01:45:03.010Z,4.32
2023-05-01T01:46:06.690Z,4.10
2023-05-01T01:47:12.021Z,4.40
2023-05-01T01:48:17.810Z,4.07
2023-05-01T01:49:26.272Z,4.05
2023-05-01T01:50:31.164Z,4.90
2023-05-01T01:51:33.391Z,4.57
2023-05-01T01:52:37.142Z,4.38
2023-05-01T01:53:41.012Z,4.55
2023-05-01T01:54:48.799Z,4.03
2023-05-01T01:55:51.800Z,4.55
2023-05-01T01:56:55.236Z,4.95
2023-05-01T01:57:59.511Z,4.43
2023-05-01T01:59:02.006Z,3.85
2023-05-01T02:00:08.832Z,4.15
2023-05-01T02:01:11.225Z,4.43
2023-05-01T02:02:15.429Z,3.92
2023-05-01T02:03:17.663Z,4.00
2023-05-01T02:04:20.182Z,3.80
2023-05-01T02:05:22.135Z,3.92
2023-05-01T02:06:25.376Z,4.07
2023-05-01T02:07:28.989Z,3.30
2023-05-01T02:08:31.710Z,4.10
2023-05-01T02:09:35.346Z,4.65
2023-05-01T02:10:37.990Z,3.85
2023-05-01T02:11:41.393Z,3.90
2023-05-01T02:12:46.028Z,4.00
2023-05-01T02:13:49.803Z,4.35
2023-05-01T02:14:53.281Z,3.83
2023-05-01T02:15:58.793Z,3.72
2023-05-01T02:17:01.506Z,4.30
2023-05-01T02:18:05.964Z,4.10
2023-05-01T02:19:07.935Z,4.13
2023-05-01T02:20:12.613Z,4.07
2023-05-01T02:21:16.072Z,3.70
2023-05-01T02:22:19.198Z,4.35
2023-05-01T02:23:21.278Z,4.10
2023-05-01T02:24:24.825Z,4.20
2023-05-01T02:25:30.485Z,4.85
2023-05-01T02:26:46.312Z,4.93
2023-05-01T02:27:52.897Z,4.20
2023-05-01T02:28:54.822Z,4.03
2023-05-01T02:29:57.827Z,3.92
2023-05-01T02:30:59.785Z,4.10
2023-05-01T02:32:01.447Z,4.40
2023-05-01T02:33:03.895Z,4.68
2023-05-01T02:34:05.808Z,4.15
2023-05-01T02:35:07.753Z,4.50
2023-05-01T02:36:09.391Z,4.70
2023-05-01T02:37:11.886Z,4.15
2023-05-01T02:38:17.005Z,4.03
2023-05-01T02:39:18.910Z,3.92
2023-05-01T02:40:21.224Z,4.53
2023-05-01T02:41:24.677Z,3.78
2023-05-01T02:42:27.249Z,4.45
2023-05-01T02:43:30.335Z,4.57
2023-05-01T02:44:40.054Z,4.20
2023-05-01T02:45:43.756Z,3.78
2023-05-01T02:46:49.529Z,4.93
2023-05-01T02:47:55.748Z,4.40
2023-05-01T02:48:59.576Z,3.65
2023-05-01T02:50:02.816Z,4.22
2023-05-01T02:51:05.879Z,3.92
2023-05-01T02:52:07.812Z,3.97
2023-05-01T02:53:10.123Z,4.40
2023-05-01T02:54:12.814Z,3.97
2023-05-01T02:55:15.248Z,4.30
2023-05-01T02:56:16.883Z,4.68
2023-05-01T02:57:20.254Z,4.45
2023-05-01T02:58:22.083Z,4.78
2023-05-01T02:59:23.831Z,4.28
2023-05-01T03:00:26.499Z,4.25
2023-05-01T03:01:28.530Z,3.97
2023-05-01T03:02:30.229Z,4.60
2023-05-01T03:03:31.854Z,4.13
2023-05-01T03:04:33.687Z,3.92
2023-05-01T03:05:35.334Z,4.57
2023-05-01T03:06:36.998Z,4.30
2023-05-01T03:07:38.621Z,4.50
2023-05-01T03:08:40.629Z,4.10
2023-05-01T03:09:42.290Z,4.20
2023-05-01T03:10:44.304Z,4.00
2023-05-01T03:11:46.017Z,4.80
2023-05-01T03:12:47.596Z,4.90
2023-05-01T03:13:49.388Z,4.60
2023-05-01T03:14:50.965Z,4.30
2023-05-01T03:15:53.086Z,4.45
2023-05-01T03:16:55.892Z,4.15
2023-05-01T03:17:57.549Z,4.80
2023-05-01T03:18:59.296Z,4.32
2023-05-01T03:20:00.906Z,4.50
2023-05-01T03:21:02.525Z,4.90
2023-05-01T03:22:04.116Z,4.90
2023-05-01T03:23:06.687Z,4.22
2023-05-01T03:24:08.360Z,4.15
2023-05-01T03:25:10.286Z,4.63
2023-05-01T03:26:12.046Z,4.20
2023-05-01T03:27:13.748Z,5.05
2023-05-01T03:28:15.411Z,4.40
2023-05-01T03:29:17.060Z,4.90
2023-05-01T03:30:19.367Z,4.50
2023-05-01T03:31:21.777Z,4.80
2023-05-01T03:32:23.529Z,4.32
2023-05-01T03:33:26.185Z,4.40
2023-05-01T03:34:27.810Z,4.50
2023-05-01T03:35:29.439Z,4.32
2023-05-01T03:36:33.845Z,5.53
2023-05-01T03:37:36.069Z,4.88
2023-05-01T03:38:37.871Z,4.35
2023-05-01T03:39:39.489Z,4.72
2023-05-01T03:40:41.088Z,4.40
2023-05-01T03:41:42.985Z,4.82
2023-05-01T03:42:44.634Z,4.30
2023-05-01T03:43:46.282Z,4.70
2023-05-01T03:44:47.874Z,4.28
2023-05-01T03:45:50.776Z,4.47
2023-05-01T03:46:52.564Z,4.57
2023-05-01T03:47:54.793Z,4.70
2023-05-01T03:48:56.814Z,4.70
2023-05-01T03:49:58.816Z,4.80
2023-05-01T03:51:00.578Z,4.90
2023-05-01T03:52:02.341Z,4.45
2023-05-01T03:53:04.617Z,4.78
2023-05-01T03:54:06.345Z,5.03
2023-05-01T03:55:08.813Z,6.03
2023-05-01T03:56:10.504Z,5.00
2023-05-01T03:57:12.170Z,4.43
2023-05-01T03:58:13.799Z,5.10
2023-05-01T03:59:15.397Z,4.50
2023-05-01T04:00:17.025Z,4.95
2023-05-01T04:01:19.592Z,5.05
2023-05-01T04:02:21.322Z,4.47
2023-05-01T04:03:23.222Z,4.00
2023-05-01T04:04:24.942Z,5.25
2023-05-01T04:05:26.669Z,4.47
2023-05-01T04:06:28.414Z,4.47
2023-05-01T04:07:30.080Z,4.05
2023-05-01T04:08:31.740Z,4.55
2023-05-01T04:09:33.526Z,4.93
2023-05-01T04:10:35.988Z,3.88
2023-05-01T04:11:37.563Z,4.55
2023-05-01T04:12:39.558Z,3.95
2023-05-01T04:13:41.201Z,4.60
2023-05-01T04:14:44.373Z,3.63
2023-05-01T04:15:48.922Z,4.38
2023-05-01T04:16:51.139Z,4.13
2023-05-01T04:17:54.173Z,4.00
2023-05-01T04:18:55.764Z,3.70
2023-05-01T04:19:57.592Z,4.57
2023-05-01T04:20:59.565Z,4.63
2023-05-01T04:22:01.426Z,4.15
2023-05-01T04:23:03.227Z,3.95
2023-05-01T04:24:05.190Z,4.15
2023-05-01T04:25:08.763Z,4.38
2023-05-01T04:26:10.406Z,4.05
2023-05-01T04:27:11.956Z,3.50
2023-05-01T04:28:13.954Z,4.18
2023-05-01T04:29:15.508Z,4.38
2023-05-01T04:30:17.554Z,4.80
2023-05-01T04:31:19.411Z,4.65
2023-05-01T04:32:21.605Z,4.47
2023-05-01T04:33:23.540Z,4.60
2023-05-01T04:34:29.100Z,4.72
2023-05-01T04:35:30.686Z,4.30
2023-05-01T04:36:33.020Z,4.80
2023-05-01T04:37:35.638Z,4.40
2023-05-01T04:38:37.395Z,4.38
2023-05-01T04:39:38.948Z,4.25
2023-05-01T04:40:40.648Z,4.32
2023-05-01T04:41:42.214Z,4.50
2023-05-01T04:42:43.989Z,3.67
2023-05-01T04:43:45.593Z,4.78
2023-05-01T04:44:47.350Z,4.90
2023-05-01T04:45:48.916Z,4.75
2023-05-01T04:46:50.521Z,4.28
2023-05-01T04:47:52.177Z,4.80
2023-05-01T04:48:53.832Z,4.35
2023-05-01T04:49:55.663Z,5.10
2023-05-01T04:50:57.553Z,4.20
2023-05-01T04:51:59.196Z,4.25
2023-05-01T04:53:00.761Z,4.60
2023-05-01T04:54:02.416Z,4.50
2023-05-01T04:55:04.409Z,4.45
2023-05-01T04:56:06.147Z,5.03
2023-05-01T04:57:07.703Z,4.38
2023-05-01T04:58:09.253Z,4.28
2023-05-01T04:59:10.878Z,6.07
2023-05-01T05:00:12.905Z,5.82
2023-05-01T05:01:14.464Z,6.25
2023-05-01T05:02:16.300Z,5.80
2023-05-01T05:03:19.134Z,6.07
2023-05-01T05:04:20.783Z,5.05
2023-05-01T05:05:22.357Z,6.07
2023-05-01T05:06:23.978Z,6.03
2023-05-01T05:07:25.547Z,5.80
2023-05-01T05:08:27.131Z,4.40
2023-05-01T05:09:28.746Z,5.07
2023-05-01T05:10:30.522Z,5.43
2023-05-01T05:11:32.154Z,4.95
2023-05-01T05:12:33.744Z,4.85
2023-05-01T05:13:35.363Z,5.32
2023-05-01T05:14:36.937Z,5.38
2023-05-01T05:15:38.556Z,5.40
2023-05-01T05:16:40.261Z,7.22
2023-05-01T05:17:41.959Z,5.65
2023-05-01T05:18:43.743Z,6.07
2023-05-01T05:19:45.424Z,6.47
2023-05-01T05:20:47.076Z,6.90
2023-05-01T05:21:48.634Z,6.10
2023-05-01T05:22:50.181Z,6.05
2023-05-01T05:23:51.845Z,6.80
2023-05-01T05:24:55.701Z,6.88
2023-05-01T05:26:01.601Z,6.15
2023-05-01T05:27:03.993Z,7.30
2023-05-01T05:28:05.565Z,6.30
2023-05-01T05:29:07.241Z,6.78
2023-05-01T05:30:10.218Z,5.68
2023-05-01T05:31:11.804Z,5.70
2023-05-01T05:32:13.432Z,5.05
2023-05-01T05:33:15.118Z,4.82
2023-05-01T05:34:17.385Z,5.07
2023-05-01T05:35:19.332Z,5.72
2023-05-01T05:36:21.095Z,5.75
2023-05-01T05:37:22.758Z,5.85
2023-05-01T05:38:24.348Z,5.65
2023-05-01T05:39:25.994Z,5.95
2023-05-01T05:40:27.825Z,5.63
2023-05-01T05:41:29.610Z,5.63
2023-05-01T05:42:31.258Z,6.00
2023-05-01T05:43:32.803Z,5.55
2023-05-01T05:44:35.964Z,5.00
2023-05-01T05:45:38.041Z,5.50
2023-05-01T05:46:39.646Z,5.30
2023-05-01T05:47:41.473Z,5.25
2023-05-01T05:48:43.037Z,5.45
2023-05-01T05:49:44.636Z,4.65
2023-05-01T05:50:46.746Z,5.30
2023-05-01T05:51:48.307Z,5.28
2023-05-01T05:52:49.940Z,4.93
2023-05-01T05:53:51.630Z,5.80
2023-05-01T05:54:53.205Z,5.13
2023-05-01T05:55:54.830Z,5.65
2023-05-01T05:56:56.625Z,4.60
2023-05-01T05:57:58.331Z,4.95
2023-05-01T05:59:03.374Z,5.97
2023-05-01T06:00:05.598Z,5.43
2023-05-01T06:01:09.250Z,5.63
2023-05-01T06:02:10.844Z,5.10
2023-05-01T06:03:12.649Z,5.72
2023-05-01T06:04:15.013Z,5.10
2023-05-01T06:05:16.704Z,5.63
2023-05-01T06:06:18.535Z,5.25
2023-05-01T06:07:22.114Z,5.40
2023-05-01T06:08:23.699Z,5.90
2023-05-01T06:09:26.252Z,6.38
2023-05-01T06:10:27.821Z,6.18
2023-05-01T06:11:29.454Z,6.40
2023-05-01T06:12:31.810Z,5.85
2023-05-01T06:13:34.397Z,5.75
2023-05-01T06:14:35.955Z,5.25
2023-05-01T06:15:38.200Z,5.78
2023-05-01T06:16:40.002Z,6.15
2023-05-01T06:17:42.600Z,5.82
2023-05-01T06:18:45.816Z,6.07
2023-05-01T06:19:47.631Z,6.43
2023-05-01T06:20:49.229Z,6.03
2023-05-01T06:21:50.796Z,6.03
2023-05-01T06:22:52.354Z,6.70
2023-05-01T06:23:53.945Z,6.05
2023-05-01T06:24:55.525Z,5.65
2023-05-01T06:25:57.112Z,5.47
2023-05-01T06:27:00.862Z,5.63
2023-05-01T06:28:04.061Z,5.72
2023-05-01T06:29:05.666Z,5.45
2023-05-01T06:30:09.250Z,5.90
2023-05-01T06:31:11.006Z,5.57
2023-05-01T06:32:12.656Z,4.50
2023-05-01T06:33:14.258Z,6.05
2023-05-01T06:34:16.120Z,5.32
2023-05-01T06:35:17.784Z,5.40
2023-05-01T06:36:19.468Z,5.13
2023-05-01T06:37:21.353Z,4.78
2023-05-01T06:38:24.473Z,5.13
2023-05-01T06:39:27.916Z,5.20
2023-05-01T06:40:31.565Z,4.70
2023-05-01T06:41:34.381Z,5.30
2023-05-01T06:42:37.033Z,4.93
2023-05-01T06:43:38.655Z,5.38
2023-05-01T06:44:40.444Z,4.78
2023-05-01T06:45:42.114Z,5.50
2023-05-01T06:46:43.830Z,6.22
2023-05-01T06:47:45.536Z,5.72
2023-05-01T06:48:47.169Z,5.68
2023-05-01T06:49:48.793Z,5.90
2023-05-01T06:50:50.694Z,6.28
2023-05-01T06:51:52.288Z,5.97
2023-05-01T06:52:53.970Z,6.20
2023-05-01T06:53:55.677Z,5.47
2023-05-01T06:54:57.251Z,5.75
2023-05-01T06:55:58.854Z,5.55
2023-05-01T06:57:00.543Z,5.45
2023-05-01T06:58:06.915Z,5.13
2023-05-01T06:59:14.084Z,5.20
2023-05-01T07:00:17.448Z,5.50
2023-05-01T07:01:19.627Z,5.57
2023-05-01T07:02:21.478Z,4.70
2023-05-01T07:03:23.326Z,5.57
2023-05-01T07:04:25.197Z,5.20
2023-05-01T07:05:26.826Z,5.30
2023-05-01T07:06:28.727Z,6.13
2023-05-01T07:07:30.949Z,5.50
2023-05-01T07:08:32.552Z,5.90
2023-05-01T07:09:34.156Z,5.32
2023-05-01T07:10:36.030Z,5.55
2023-05-01T07:11:38.272Z,6.35
2023-05-01T07:12:39.914Z,5.22
2023-05-01T07:13:41.844Z,5.75
2023-05-01T07:14:43.694Z,5.43
2023-05-01T07:15:45.451Z,4.95
2023-05-01T07:16:47.279Z,5.53
2023-05-01T07:17:50.364Z,5.00
2023-05-01T07:18:51.962Z,5.40
2023-05-01T07:19:53.612Z,5.15
2023-05-01T07:20:55.512Z,5.10
2023-05-01T07:21:57.200Z,5.32
2023-05-01T07:22:58.794Z,4.40
2023-05-01T07:24:00.408Z,4.65
2023-05-01T07:25:03.331Z,4.75
2023-05-01T07:26:05.744Z,4.70
2023-05-01T07:27:07.497Z,4.97
2023-05-01T07:28:09.121Z,5.97
2023-05-01T07:29:11.753Z,4.70
2023-05-01T07:30:13.295Z,5.13
2023-05-01T07:31:15.311Z,5.38
2023-05-01T07:32:17.453Z,4.82
2023-05-01T07:33:19.120Z,5.18
2023-05-01T07:34:20.765Z,6.28
2023-05-01T07:35:22.305Z,6.20
2023-05-01T07:36:24.021Z,6.00
2023-05-01T07:37:26.973Z,4.93
2023-05-01T07:38:28.526Z,5.10
2023-05-01T07:39:30.458Z,5.20
2023-05-01T07:40:34.169Z,5.50
2023-05-01T07:41:35.786Z,5.65
2023-05-01T07:42:37.742Z,5.65
2023-05-01T07:43:39.303Z,5.13
2023-05-01T07:44:40.895Z,5.30
2023-05-01T07:45:42.780Z,5.32
2023-05-01T07:46:44.634Z,5.25
2023-05-01T07:47:46.278Z,5.30
2023-05-01T07:48:47.818Z,5.25
2023-05-01T07:49:49.918Z,5.18
2023-05-01T07:50:51.653Z,5.60
2023-05-01T07:51:55.608Z,5.40
2023-05-01T07:52:57.390Z,5.50
2023-05-01T07:54:03.536Z,5.00
2023-05-01T07:55:05.851Z,4.85
2023-05-01T07:56:09.356Z,5.28
2023-05-01T07:57:10.911Z,5.47
2023-05-01T07:58:12.487Z,5.47
2023-05-01T07:59:15.590Z,5.32
2023-05-01T08:00:18.007Z,5.22
2023-05-01T08:01:19.677Z,5.32
2023-05-01T08:02:21.273Z,4.93
2023-05-01T08:03:23.016Z,5.68
2023-05-01T08:04:24.861Z,5.47
2023-05-01T08:05:26.524Z,5.82
2023-05-01T08:06:28.345Z,5.63
2023-05-01T08:07:29.954Z,5.75
2023-05-01T08:08:31.537Z,5.53
2023-05-01T08:09:33.185Z,5.63
2023-05-01T08:10:34.989Z,5.47
2023-05-01T08:11:36.582Z,5.63
2023-05-01T08:12:38.288Z,6.25
2023-05-01T08:13:40.195Z,5.47
2023-05-01T08:14:41.747Z,5.53
2023-05-01T08:15:43.432Z,5.65
2023-05-01T08:16:45.125Z,5.80
2023-05-01T08:17:46.856Z,6.50
2023-05-01T08:18:48.410Z,5.73
2023-05-01T08:19:50.240Z,5.40
2023-05-01T08:20:51.935Z,5.50
2023-05-01T08:21:53.841Z,5.65
2023-05-01T08:22:55.393Z,6.20
2023-05-01T08:23:57.012Z,5.90
2023-05-01T08:24:58.556Z,6.20
2023-05-01T08:26:00.341Z,6.50
2023-05-01T08:27:02.477Z,6.30
2023-05-01T08:28:04.224Z,6.37
2023-05-01T08:29:05.775Z,6.17
2023-05-01T08:30:07.960Z,5.53
2023-05-01T08:31:09.666Z,5.50
2023-05-01T08:32:11.395Z,5.80
2023-05-01T08:33:13.044Z,6.20
2023-05-01T08:34:14.941Z,6.63
2023-05-01T08:35:16.768Z,6.30
2023-05-01T08:36:19.490Z,6.00
2023-05-01T08:37:22.781Z,6.27
2023-05-01T08:38:24.335Z,5.87
2023-05-01T08:39:25.911Z,6.23
2023-05-01T08:40:30.514Z,6.00
2023-05-01T08:41:32.826Z,6.10
2023-05-01T08:42:37.351Z,5.77
2023-05-01T08:43:40.767Z,6.97
2023-05-01T08:44:44.765Z,6.20
2023-05-01T08:45:48.841Z,7.10
2023-05-01T08:47:08.402Z,6.43
2023-05-01T08:48:12.945Z,7.80
2023-05-01T08:49:16.882Z,7.40
2023-05-01T08:50:19.123Z,7.27
2023-05-01T08:51:22.950Z,6.47
2023-05-01T08:52:27.241Z,6.87
2023-05-01T08:53:29.357Z,7.90
2023-05-01T08:54:32.541Z,7.30
2023-05-01T08:55:36.501Z,6.70
2023-05-01T08:56:39.202Z,7.00
2023-05-01T08:57:47.998Z,6.27
2023-05-01T08:58:50.876Z,7.60
2023-05-01T08:59:54.775Z,7.27
2023-05-01T09:00:58.206Z,6.43
2023-05-01T09:02:04.218Z,6.60
2023-05-01T09:03:08.782Z,6.80
2023-05-01T09:04:11.904Z,7.40
2023-05-01T09:05:18.275Z,7.83
2023-05-01T09:06:21.160Z,6.90
2023-05-01T09:07:23.301Z,7.27
2023-05-01T09:08:24.930Z,6.90
2023-05-01T09:09:27.858Z,6.83
2023-05-01T09:10:32.476Z,6.90
2023-05-01T09:11:34.607Z,6.40
2023-05-01T09:12:36.548Z,6.50
2023-05-01T09:13:38.849Z,6.93
2023-05-01T09:14:40.517Z,7.20
2023-05-01T09:15:42.121Z,7.60
2023-05-01T09:16:43.807Z,6.67
2023-05-01T09:17:45.599Z,7.40
2023-05-01T09:18:47.876Z,7.20
2023-05-01T09:19:50.846Z,7.20
2023-05-01T09:20:52.796Z,7.10
2023-05-01T09:21:55.846Z,6.50
2023-05-01T09:22:57.686Z,7.13
2023-05-01T09:23:59.394Z,6.70
2023-05-01T09:25:01.392Z,7.07
2023-05-01T09:26:06.907Z,7.13
2023-05-01T09:27:09.260Z,7.70
2023-05-01T09:28:10.897Z,6.90
2023-05-01T09:29:14.295Z,6.33
2023-05-01T09:30:31.525Z,7.33
2023-05-01T09:31:33.173Z,7.07
2023-05-01T09:32:34.918Z,6.70
2023-05-01T09:33:54.965Z,6.13
2023-05-01T09:35:14.360Z,7.13
2023-05-01T09:36:18.260Z,6.77
2023-05-01T09:37:32.613Z,6.20
2023-05-01T09:38:34.228Z,6.73
2023-05-01T09:39:35.923Z,6.20
2023-05-01T09:40:37.609Z,6.83
2023-05-01T09:41:52.335Z,6.80
2023-05-01T09:42:56.409Z,6.47
2023-05-01T09:43:59.144Z,6.80
2023-05-01T09:45:01.852Z,7.27
2023-05-01T09:46:11.765Z,6.60
2023-05-01T09:47:22.850Z,6.60
2023-05-01T09:48:24.526Z,6.40
2023-05-01T09:49:48.202Z,6.50
2023-05-01T09:50:49.825Z,6.87
2023-05-01T09:51:51.996Z,6.40
2023-05-01T09:52:53.622Z,7.00
2023-05-01T09:53:57.140Z,6.77
2023-05-01T09:55:16.375Z,6.90
2023-05-01T09:56:18.734Z,6.23
2023-05-01T09:57:36.107Z,6.67
2023-05-01T09:58:37.667Z,5.87
2023-05-01T09:59:39.328Z,5.30
2023-05-01T10:00:49.233Z,4.97
2023-05-01T10:01:51.975Z,4.60
2023-05-01T10:02:54.012Z,6.07
2023-05-01T10:03:56.676Z,5.80
2023-05-01T10:04:59.974Z,5.40
2023-05-01T10:06:02.817Z,6.30
2023-05-01T10:07:14.567Z,5.50
2023-05-01T10:08:16.582Z,5.50
2023-05-01T10:09:29.904Z,6.10
2023-05-01T10:10:31.679Z,5.77
2023-05-01T10:11:54.411Z,6.67
2023-05-01T10:12:55.987Z,5.80
2023-05-01T10:14:10.986Z,7.07
2023-05-01T10:15:24.650Z,6.50
2023-05-01T10:16:30.613Z,7.17
2023-05-01T10:17:33.861Z,6.07
2023-05-01T10:18:36.169Z,6.10
2023-05-01T10:19:37.795Z,6.80
2023-05-01T10:20:39.494Z,5.73
2023-05-01T10:21:41.383Z,5.80
2023-05-01T10:22:43.000Z,5.80
2023-05-01T10:23:44.611Z,5.87
2023-05-01T10:24:46.399Z,6.33
2023-05-01T10:25:52.622Z,6.07
2023-05-01T10:26:55.750Z,6.07
2023-05-01T10:27:57.819Z,6.20
2023-05-01T10:29:01.554Z,6.20
2023-05-01T10:30:05.294Z,6.50
2023-05-01T10:31:07.554Z,6.50
2023-05-01T10:32:09.753Z,5.90
2023-05-01T10:33:13.877Z,5.93
2023-05-01T10:34:22.089Z,6.80
2023-05-01T10:35:33.301Z,5.97
2023-05-01T10:36:44.659Z,6.50
2023-05-01T10:38:00.907Z,6.13
2023-05-01T10:39:03.589Z,6.13
2023-05-01T10:40:43.488Z,6.27
2023-05-01T10:42:14.768Z,5.80
2023-05-01T10:43:21.167Z,6.20
2023-05-01T10:44:24.094Z,5.53
2023-05-01T10:45:30.024Z,6.27
2023-05-01T10:46:32.077Z,6.30
2023-05-01T10:47:35.215Z,6.27
2023-05-01T10:48:43.722Z,6.40
2023-05-01T10:50:08.544Z,5.77
2023-05-01T10:51:12.111Z,7.13
2023-05-01T10:52:15.921Z,6.53
2023-05-01T10:53:17.938Z,6.33
2023-05-01T10:54:23.394Z,5.80
2023-05-01T10:55:34.425Z,6.23
2023-05-01T10:56:36.156Z,5.73
2023-05-01T10:57:44.907Z,6.50
2023-05-01T10:58:51.457Z,5.37
2023-05-01T10:59:59.676Z,5.47
2023-05-01T11:01:33.483Z,5.50
2023-05-01T11:02:35.286Z,6.87
2023-05-01T11:03:37.411Z,5.67
2023-05-01T11:04:51.656Z,5.90
2023-05-01T11:06:05.509Z,5.80
2023-05-01T11:07:13.438Z,5.40
2023-05-01T11:08:35.498Z,5.30
2023-05-01T11:09:54.785Z,5.50
2023-05-01T11:10:56.408Z,5.37
2023-05-01T11:11:57.974Z,5.47
2023-05-01T11:12:59.600Z,5.47
2023-05-01T11:14:01.991Z,5.43
2023-05-01T11:15:05.866Z,5.00
2023-05-01T11:16:36.663Z,4.50
2023-05-01T11:17:41.038Z,5.23
2023-05-01T11:18:46.468Z,5.27
2023-05-01T11:19:48.288Z,4.77
2023-05-01T11:20:50.229Z,5.20
2023-05-01T11:21:52.476Z,5.60
2023-05-01T11:22:58.013Z,6.10
2023-05-01T11:24:09.254Z,5.07
2023-05-01T11:25:25.482Z,4.53
2023-05-01T11:26:30.150Z,5.40
2023-05-01T11:27:33.457Z,4.20
2023-05-01T11:28:38.210Z,5.03
2023-05-01T11:29:40.297Z,5.63
2023-05-01T11:30:42.247Z,4.70
2023-05-01T11:31:48.811Z,4.50
2023-05-01T11:32:51.358Z,4.60
2023-05-01T11:33:56.385Z,4.20
2023-05-01T11:34:58.603Z,3.87
2023-05-01T11:36:01.850Z,4.47
2023-05-01T11:37:03.721Z,4.20
2023-05-01T11:38:05.348Z,3.60
2023-05-01T11:39:15.190Z,3.60
2023-05-01T11:40:34.401Z,3.80
2023-05-01T11:41:36.024Z,4.40
2023-05-01T11:42:37.739Z,5.03
2023-05-01T11:43:50.547Z,4.00
2023-05-01T11:45:24.737Z,4.43
2023-05-01T11:46:27.845Z,4.10
2023-05-01T11:47:32.661Z,4.13
2023-05-01T11:48:34.445Z,4.53
2023-05-01T11:49:36.273Z,4.70
2023-05-01T11:50:38.629Z,4.13
2023-05-01T11:51:40.630Z,3.83
2023-05-01T11:52:49.352Z,3.23
2023-05-01T11:54:09.488Z,3.70
2023-05-01T11:55:11.691Z,3.10
2023-05-01T11:56:26.468Z,3.40
2023-05-01T11:57:28.466Z,3.30
2023-05-01T11:58:34.494Z,3.30
2023-05-01T11:59:36.750Z,3.70
2023-05-01T12:00:40.424Z,3.53
2023-05-01T12:01:44.489Z,3.30
2023-05-01T12:02:59.048Z,3.17
2023-05-01T12:04:01.052Z,3.60
2023-05-01T12:05:23.567Z,3.33
2023-05-01T12:06:36.808Z,3.50
2023-05-01T12:07:38.472Z,2.77
2023-05-01T12:08:51.148Z,3.50
2023-05-01T12:09:53.311Z,3.60
2023-05-01T12:10:57.317Z,3.20
2023-05-01T12:12:01.829Z,2.70
2023-05-01T12:13:04.990Z,2.73
2023-05-01T12:14:06.992Z,2.23
2023-05-01T12:15:09.937Z,2.20
2023-05-01T12:16:11.862Z,2.33
2023-05-01T12:17:13.819Z,3.03
2023-05-01T12:18:17.429Z,2.60
2023-05-01T12:19:20.177Z,2.70
2023-05-01T12:20:37.772Z,3.30
2023-05-01T12:21:41.241Z,3.30
2023-05-01T12:22:50.252Z,3.30
2023-05-01T12:23:52.094Z,3.23
2023-05-01T12:24:54.001Z,3.40
2023-05-01T12:25:55.585Z,3.30
2023-05-01T12:27:01.917Z,3.47
2023-05-01T12:28:12.995Z,3.63
2023-05-01T12:29:14.574Z,3.20
2023-05-01T12:30:25.582Z,2.90
2023-05-01T12:31:28.349Z,3.60
2023-05-01T12:32:32.291Z,3.10
2023-05-01T12:33:33.894Z,3.47
2023-05-01T12:34:35.754Z,3.63
2023-05-01T12:35:37.884Z,3.40
2023-05-01T12:36:39.522Z,3.33
2023-05-01T12:37:41.525Z,3.43
2023-05-01T12:38:56.084Z,3.57
2023-05-01T12:39:57.871Z,3.60
2023-05-01T12:41:01.183Z,3.70
2023-05-01T12:42:02.835Z,3.57
2023-05-01T12:43:04.528Z,3.13
2023-05-01T12:44:23.035Z,3.30
2023-05-01T12:45:25.301Z,4.17
2023-05-01T12:46:27.496Z,3.00
2023-05-01T12:47:37.283Z,3.40
2023-05-01T12:48:40.113Z,3.50
2023-05-01T12:49:41.796Z,3.33
2023-05-01T12:50:45.410Z,3.30
2023-05-01T12:51:49.922Z,3.70
2023-05-01T12:52:52.265Z,3.27
2023-05-01T12:53:57.497Z,2.50
2023-05-01T12:55:04.048Z,2.70
2023-05-01T12:56:06.565Z,3.37
2023-05-01T12:57:14.802Z,2.50
2023-05-01T12:58:17.268Z,2.50
2023-05-01T12:59:26.973Z,2.83
2023-05-01T13:00:28.548Z,2.93
2023-05-01T13:01:30.320Z,2.60
2023-05-01T13:02:33.677Z,2.70
2023-05-01T13:03:39.250Z,2.80
2023-05-01T13:04:44.577Z,2.70
2023-05-01T13:06:01.100Z,2.50
2023-05-01T13:07:10.000Z,2.47
2023-05-01T13:08:11.595Z,2.43
2023-05-01T13:09:15.269Z,1.90
2023-05-01T13:10:30.496Z,2.17
2023-05-01T13:11:32.159Z,2.10
2023-05-01T13:12:43.701Z,2.47
2023-05-01T13:13:46.318Z,2.07
2023-05-01T13:14:48.386Z,2.20
2023-05-01T13:15:50.025Z,2.20
2023-05-01T13:16:52.429Z,2.83
2023-05-01T13:18:03.172Z,2.27
2023-05-01T13:19:06.256Z,2.03
2023-05-01T13:20:08.229Z,2.50
2023-05-01T13:21:11.188Z,1.97
2023-05-01T13:22:12.853Z,2.10
2023-05-01T13:23:15.277Z,2.30
2023-05-01T13:24:16.946Z,2.10
2023-05-01T13:25:22.433Z,2.73
2023-05-01T13:26:35.696Z,2.77
2023-05-01T13:27:37.427Z,2.50
2023-05-01T13:28:45.573Z,2.17
2023-05-01T13:29:55.756Z,2.30
2023-05-01T13:30:57.680Z,2.27
2023-05-01T13:31:59.800Z,2.70
2023-05-01T13:33:01.892Z,2.10
2023-05-01T13:34:04.266Z,2.33
2023-05-01T13:35:08.115Z,2.47
2023-05-01T13:36:25.393Z,2.40
2023-05-01T13:37:28.320Z,1.90
2023-05-01T13:38:34.269Z,2.57
2023-05-01T13:39:36.193Z,2.40
2023-05-01T13:40:39.360Z,2.40
2023-05-01T13:41:42.515Z,2.80
2023-05-01T13:42:44.264Z,2.87
2023-05-01T13:43:47.304Z,2.30
2023-05-01T13:44:52.125Z,2.50
2023-05-01T13:45:57.669Z,2.73
2023-05-01T13:47:03.162Z,2.30
2023-05-01T13:48:05.494Z,2.37
2023-05-01T13:49:09.926Z,2.30
2023-05-01T13:50:13.923Z,2.53
2023-05-01T13:51:21.674Z,2.50
2023-05-01T13:52:23.222Z,2.53
2023-05-01T13:53:25.006Z,3.07
2023-05-01T13:54:26.601Z,2.30
2023-05-01T13:55:28.256Z,2.70
2023-05-01T13:56:30.121Z,2.70
2023-05-01T13:57:31.756Z,2.50
2023-05-01T13:58:34.014Z,2.57
2023-05-01T13:59:40.850Z,2.40
2023-05-01T14:00:45.137Z,2.37
2023-05-01T14:01:47.782Z,2.40
2023-05-01T14:02:49.855Z,2.40
2023-05-01T14:03:52.264Z,2.10
2023-05-01T14:04:54.621Z,2.33
2023-05-01T14:05:56.294Z,2.43
2023-05-01T14:06:59.935Z,2.50
2023-05-01T14:08:02.133Z,2.37
2023-05-01T14:09:05.817Z,2.60
2023-05-01T14:10:09.490Z,2.30
2023-05-01T14:11:11.661Z,2.90
2023-05-01T14:12:14.715Z,2.20
2023-05-01T14:13:18.971Z,3.00
2023-05-01T14:14:20.930Z,2.40